Time;durP1;ratioP1;P1;durP2;ratioP2;P2;SDS_P1;SDS_P2;PMS_P1;PMS_P2;Temp;Humidity;BMP_temperature;BMP_pressure;BME280_temperature;BME280_humidity;BME280_pressure;Samples;Min_cycle;Max_cycle;Signal;HPM_P1;HPM_P2
2021/06/14 00:02:06;;;;;;;3.95;2.20;;;;;;;20.76;40.01;100676.88;4995795;28;20046;-83
2021/06/14 00:04:35;;;;;;;4.65;2.75;;;;;;;20.73;39.96;100676.25;4995489;28;20058;-83
2021/06/14 00:07:02;;;;;;;6.68;3.25;;;;;;;20.73;40.15;100670.91;4997312;28;20054;-83
2021/06/14 00:09:30;;;;;;;5.90;2.75;;;;;;;20.69;40.68;100671.19;4995784;28;20054;-83
2021/06/14 00:12:03;;;;;;;6.28;2.83;;;;;;;20.67;40.83;100666.97;4995989;28;20050;-83
2021/06/14 00:14:30;;;;;;;6.95;3.08;;;;;;;20.66;39.92;100663.41;5008339;28;20530;-83
2021/06/14 00:17:01;;;;;;;4.43;2.67;;;;;;;20.62;39.94;100659.31;5016655;28;20068;-83
2021/06/14 00:19:27;;;;;;;4.38;2.17;;;;;;;20.60;39.57;100658.59;5016718;28;20556;-83
2021/06/14 00:22:04;;;;;;;6.00;2.35;;;;;;;20.59;40.09;100658.72;5015138;28;20081;-83
2021/06/14 00:24:31;;;;;;;6.65;2.92;;;;;;;20.57;39.80;100658.88;5015271;28;20050;-83
2021/06/14 00:26:58;;;;;;;4.82;2.63;;;;;;;20.55;39.66;100652.78;5013191;28;20058;-83
2021/06/14 00:29:24;;;;;;;7.63;2.92;;;;;;;20.52;39.65;100653.06;4995659;28;20542;-83
2021/06/14 00:31:51;;;;;;;7.18;2.80;;;;;;;20.49;39.51;100647.97;4995413;28;20050;-83
2021/06/14 00:34:21;;;;;;;5.13;2.53;;;;;;;20.44;40.05;100643.84;4995166;28;20062;-83
2021/06/14 00:36:48;;;;;;;3.50;2.28;;;;;;;20.43;39.66;100654.69;4995239;28;20061;-83
2021/06/14 00:39:19;;;;;;;5.38;2.80;;;;;;;20.35;40.23;100649.13;4996495;28;20064;-83
2021/06/14 00:41:47;;;;;;;5.22;2.40;;;;;;;20.35;39.86;100652.66;5005522;28;20046;-83
2021/06/14 00:44:14;;;;;;;4.60;2.53;;;;;;;20.33;39.61;100645.75;5015736;28;20054;-83
2021/06/14 00:46:49;;;;;;;6.68;2.70;;;;;;;20.25;39.66;100646.38;5014986;28;20437;-83
2021/06/14 00:49:16;;;;;;;6.75;2.20;;;;;;;20.25;39.71;100646.38;5014952;28;20132;-83
2021/06/14 00:51:43;;;;;;;5.65;2.50;;;;;;;20.21;39.99;100644.94;5014974;28;20409;-83
2021/06/14 00:54:09;;;;;;;7.55;2.83;;;;;;;20.16;39.49;100643.53;5014308;28;20058;-83
2021/06/14 00:56:36;;;;;;;6.70;2.60;;;;;;;20.14;39.65;100640.13;4996918;28;20059;-83
2021/06/14 00:59:04;;;;;;;6.15;2.60;;;;;;;20.11;40.00;100639.53;4995062;28;20434;-83
2021/06/14 01:01:31;;;;;;;6.82;2.72;;;;;;;20.09;39.76;100633.44;4994512;28;20137;-83
2021/06/14 01:03:57;;;;;;;4.78;2.40;;;;;;;20.07;39.84;100638.91;4994763;28;20506;-83
2021/06/14 01:06:26;;;;;;;7.38;2.85;;;;;;;20.04;40.21;100642.69;4994735;28;20050;-83
2021/06/14 01:08:53;;;;;;;6.35;2.72;;;;;;;20.04;40.54;100642.69;4998818;28;20054;-83
2021/06/14 01:11:48;;;;;;;4.25;2.28;;;;;;;19.99;40.53;100636.03;5014517;28;20417;-83
2021/06/14 01:14:24;;;;;;;4.85;2.60;;;;;;;19.99;40.69;100630.69;5014104;28;20052;-83
2021/06/14 01:17:10;;;;;;;5.82;2.80;;;;;;;19.94;41.18;100623.03;5014202;28;20057;-83
2021/06/14 01:19:59;;;;;;;5.13;2.78;;;;;;;19.87;40.84;100622.72;5014399;28;20482;-83
2021/06/14 01:22:44;;;;;;;4.32;2.17;;;;;;;19.83;40.79;100617.72;5011649;28;20068;-83
2021/06/14 01:25:41;;;;;;;6.55;2.22;;;;;;;19.79;40.86;100619.81;4994490;28;20125;-83
2021/06/14 01:28:09;;;;;;;4.35;1.95;;;;;;;19.81;41.08;100623.19;4994717;28;20061;-83
2021/06/14 01:30:44;;;;;;;8.35;2.47;;;;;;;19.74;41.83;100612.16;4994265;28;20062;-83
2021/06/14 01:33:13;;;;;;;3.72;2.10;;;;;;;19.74;40.84;100612.16;4995485;28;20089;-83
2021/06/14 01:35:45;;;;;;;5.78;2.40;;;;;;;19.70;41.34;100604.56;4994367;28;20057;-83
2021/06/14 01:38:17;;;;;;;6.22;2.63;;;;;;;19.67;41.13;100601.16;5012178;28;20057;-83
2021/06/14 01:40:48;;;;;;;4.27;2.30;;;;;;;19.65;41.30;100597.75;5013569;28;20053;-83
2021/06/14 01:43:19;;;;;;;4.85;2.50;;;;;;;19.65;41.57;100592.44;5013781;28;20046;-83
2021/06/14 01:45:53;;;;;;;5.82;2.63;;;;;;;19.62;41.14;100592.66;5003567;28;20054;-83
2021/06/14 01:48:22;;;;;;;4.50;2.47;;;;;;;19.63;41.66;100585.50;4995004;28;20061;-83
2021/06/14 01:50:51;;;;;;;4.80;2.28;;;;;;;19.61;41.58;100585.63;5001053;28;20516;-83
2021/06/14 01:53:18;;;;;;;5.05;2.35;;;;;;;19.59;41.65;100584.91;5013782;28;20533;-83
2021/06/14 01:55:47;;;;;;;6.75;2.65;;;;;;;19.56;41.15;100582.50;5011384;28;20041;-83
2021/06/14 01:58:19;;;;;;;3.97;2.50;;;;;;;19.53;41.56;100585.41;5013554;28;20053;-83
2021/06/14 02:00:46;;;;;;;8.35;2.55;;;;;;;19.52;41.94;100587.22;5013249;28;20418;-83
2021/06/14 02:03:15;;;;;;;5.07;2.15;;;;;;;19.50;41.13;100588.31;5013115;28;20057;-83
2021/06/14 02:05:43;;;;;;;5.90;2.65;;;;;;;19.49;41.68;100581.31;4997191;28;20056;-83
2021/06/14 02:08:17;;;;;;;6.07;2.50;;;;;;;19.45;41.71;100575.38;4993442;28;20052;-83
2021/06/14 02:10:46;;;;;;;6.38;2.45;;;;;;;19.44;41.90;100557.63;4993709;28;20061;-83
2021/06/14 02:13:13;;;;;;;5.80;2.63;;;;;;;19.44;41.70;100556.81;4993380;28;20058;-83
2021/06/14 02:15:46;;;;;;;5.53;2.50;;;;;;;19.38;41.73;100559.00;4994565;28;20054;-83
2021/06/14 02:18:13;;;;;;;6.18;1.98;;;;;;;19.38;41.43;100551.00;4998344;28;20522;-83
2021/06/14 02:20:46;;;;;;;6.05;1.95;;;;;;;19.35;42.03;100558.38;5013193;28;20087;-83
2021/06/14 02:23:17;;;;;;;8.30;2.45;;;;;;;19.33;42.18;100558.50;5012826;28;20053;-83
2021/06/14 02:25:44;;;;;;;6.43;2.42;;;;;;;19.33;42.11;100561.19;5012866;28;20058;-83
2021/06/14 02:28:43;;;;;;;6.65;2.50;;;;;;;19.25;42.41;100559.13;5014554;28;20398;-83
2021/06/14 02:31:11;;;;;;;5.45;2.45;;;;;;;19.27;42.08;100562.56;5012673;28;20056;-83
2021/06/14 02:33:38;;;;;;;7.32;2.75;;;;;;;19.24;41.95;100557.47;4994699;28;20109;-83
2021/06/14 02:36:05;;;;;;;8.38;2.85;;;;;;;19.20;41.86;100548.00;4992864;28;20070;-83
2021/06/14 02:38:39;;;;;;;6.88;2.67;;;;;;;19.15;42.51;100547.53;4993028;28;20061;-83
2021/06/14 02:41:07;;;;;;;6.60;2.15;;;;;;;19.15;42.14;100547.53;4993260;28;20062;-83
2021/06/14 02:43:34;;;;;;;7.78;3.05;;;;;;;19.12;42.37;100539.75;4992799;28;20054;-83
2021/06/14 02:46:13;;;;;;;5.78;2.50;;;;;;;19.04;43.00;100547.50;4998456;28;20049;-82
2021/06/14 02:48:43;;;;;;;7.60;2.80;;;;;;;19.05;43.24;100544.75;5012482;28;20057;-82
2021/06/14 02:51:13;;;;;;;8.80;3.08;;;;;;;19.03;43.07;100541.34;5012553;28;20062;-82
2021/06/14 02:53:42;;;;;;;9.18;3.08;;;;;;;19.01;42.66;100548.59;5011583;28;20056;-82
2021/06/14 02:56:14;;;;;;;5.60;2.75;;;;;;;18.97;43.12;100547.16;4992336;28;20050;-82
2021/06/14 02:58:44;;;;;;;5.15;2.80;;;;;;;18.95;43.01;100544.59;4992087;28;20054;-82
2021/06/14 03:01:12;;;;;;;6.95;3.20;;;;;;;18.93;43.00;100546.56;4992602;28;20066;-82
2021/06/14 03:03:41;;;;;;;7.35;2.55;;;;;;;18.89;42.80;100537.94;4992373;28;20088;-82
2021/06/14 03:06:17;;;;;;;4.93;2.85;;;;;;;18.84;42.72;100528.63;4992598;28;20058;-82
2021/06/14 03:08:46;;;;;;;7.35;2.65;;;;;;;18.85;42.70;100530.31;5002949;28;20064;-82
2021/06/14 03:11:24;;;;;;;6.10;2.45;;;;;;;18.77;43.37;100530.94;5011667;28;20439;-82
2021/06/14 03:13:52;;;;;;;8.85;3.05;;;;;;;18.77;43.06;100530.94;5012045;28;20079;-82
2021/06/14 03:16:22;;;;;;;5.07;2.63;;;;;;;18.74;43.75;100533.84;5012139;28;20057;-82
2021/06/14 03:18:51;;;;;;;6.32;3.05;;;;;;;18.71;43.22;100534.94;5011934;28;20132;-82
2021/06/14 03:21:21;;;;;;;4.97;2.65;;;;;;;18.70;43.28;100532.38;5011931;28;20501;-82
2021/06/14 03:23:49;;;;;;;7.35;2.80;;;;;;;18.68;43.49;100532.50;5008229;28;20060;-82
2021/06/14 03:26:28;;;;;;;5.60;2.65;;;;;;;18.63;43.46;100534.69;4992310;28;20061;-82
2021/06/14 03:28:55;;;;;;;5.65;2.72;;;;;;;18.65;43.58;100532.72;4992376;28;20062;-82
2021/06/14 03:31:23;;;;;;;7.72;2.83;;;;;;;18.65;43.24;100529.25;4992614;28;20056;-82
2021/06/14 03:33:50;;;;;;;7.13;2.78;;;;;;;18.64;43.86;100530.22;4992202;28;20058;-81
2021/06/14 03:36:32;;;;;;;6.70;2.78;;;;;;;18.60;43.75;100537.59;5001172;28;20060;-82
2021/06/14 03:39:00;;;;;;;7.47;2.72;;;;;;;18.63;43.54;100532.03;5011910;28;20062;-82
2021/06/14 03:41:27;;;;;;;7.95;3.42;;;;;;;18.62;44.00;100536.50;5005698;28;20042;-82
2021/06/14 03:43:54;;;;;;;9.02;3.35;;;;;;;18.64;43.46;100538.22;4992301;28;20493;-82
2021/06/14 03:46:21;;;;;;;7.28;3.28;;;;;;;18.62;43.67;100531.16;4992117;28;20054;-82
2021/06/14 03:48:51;;;;;;;5.13;3.13;;;;;;;18.59;43.73;100531.41;4992486;28;20054;-82
2021/06/14 03:51:18;;;;;;;5.07;3.00;;;;;;;18.57;43.68;100533.34;4992433;28;20056;-82
2021/06/14 03:53:56;;;;;;;7.38;3.30;;;;;;;18.55;43.67;100529.09;4991945;28;20082;-82
2021/06/14 03:56:31;;;;;;;5.43;3.30;;;;;;;18.50;44.09;100526.78;5006446;28;20237;-82
2021/06/14 03:59:11;;;;;;;7.35;3.42;;;;;;;18.44;43.81;100529.94;5011708;28;20050;-82
2021/06/14 04:01:38;;;;;;;9.07;3.28;;;;;;;18.46;43.76;100528.84;5011580;28;20056;-82
2021/06/14 04:04:40;;;;;;;8.93;3.58;;;;;;;18.40;44.26;100518.69;5011285;28;20045;-82
2021/06/14 04:07:10;;;;;;;8.02;3.40;;;;;;;18.41;44.55;100516.84;5011555;28;20052;-82
2021/06/14 04:09:37;;;;;;;9.90;3.63;;;;;;;18.40;43.99;100520.50;5007675;28;20100;-82
2021/06/14 04:12:04;;;;;;;9.05;3.53;;;;;;;18.39;44.33;100518.81;5011582;28;20071;-82
2021/06/14 04:14:31;;;;;;;9.20;3.40;;;;;;;18.38;44.40;100517.94;5011472;28;20506;-82
2021/06/14 04:17:04;;;;;;;6.80;3.63;;;;;;;18.35;44.75;100524.38;5011450;28;20065;-82
2021/06/14 04:19:31;;;;;;;8.70;3.88;;;;;;;18.36;44.40;100519.88;5012719;28;20061;-82
2021/06/14 04:21:58;;;;;;;7.07;3.35;;;;;;;18.36;44.42;100515.38;5011143;28;20062;-82
2021/06/14 04:24:25;;;;;;;7.50;3.40;;;;;;;18.35;44.37;100513.69;4993194;28;20058;-82
2021/06/14 04:26:52;;;;;;;9.55;4.07;;;;;;;18.36;44.55;100515.38;4992028;28;20409;-82
2021/06/14 04:29:19;;;;;;;6.97;3.22;;;;;;;18.38;44.39;100509.13;4991862;28;20434;-82
2021/06/14 04:31:49;;;;;;;8.00;3.65;;;;;;;18.39;44.94;100510.81;4991861;28;20062;-81
2021/06/14 04:34:16;;;;;;;5.53;3.38;;;;;;;18.40;44.58;100505.34;4991796;28;20141;-82
2021/06/14 04:36:49;;;;;;;10.55;3.63;;;;;;;18.41;44.84;100508.84;4996831;28;20050;-82
2021/06/14 04:39:16;;;;;;;6.85;2.95;;;;;;;18.46;44.42;100514.66;5014847;28;20065;-82
2021/06/14 04:41:50;;;;;;;10.15;3.45;;;;;;;18.44;44.74;100504.16;5014962;28;20046;-82
2021/06/14 04:44:17;;;;;;;7.85;3.38;;;;;;;18.49;44.42;100509.97;5016064;28;20465;-82
2021/06/14 04:46:47;;;;;;;7.43;3.70;;;;;;;18.48;44.85;100518.06;5014861;28;20058;-82
2021/06/14 04:49:14;;;;;;;8.00;3.28;;;;;;;18.49;44.26;100514.44;5014881;28;20124;-82
2021/06/14 04:51:40;;;;;;;5.70;3.35;;;;;;;18.49;44.39;100517.09;5000081;28;20069;-82
2021/06/14 04:54:08;;;;;;;7.03;3.42;;;;;;;18.48;44.43;100520.75;4995205;28;20051;-82
2021/06/14 04:56:35;;;;;;;7.70;3.28;;;;;;;18.48;44.60;100523.41;4995992;28;20442;-82
2021/06/14 04:59:02;;;;;;;7.82;3.20;;;;;;;18.47;44.49;100522.53;4994496;28;20051;-83
2021/06/14 05:01:28;;;;;;;8.05;3.45;;;;;;;18.48;44.75;100513.59;4994049;28;20496;-83
2021/06/14 05:03:55;;;;;;;7.22;3.13;;;;;;;18.49;44.68;100512.63;4994827;28;20046;-84
2021/06/14 05:06:22;;;;;;;11.18;2.65;;;;;;;18.53;44.55;100507.91;5013967;28;20054;-83
2021/06/14 05:08:49;;;;;;;7.80;3.17;;;;;;;18.56;44.62;100505.00;5013405;28;20050;-83
2021/06/14 05:11:16;;;;;;;4.47;2.83;;;;;;;18.61;44.87;100501.94;5013991;28;20077;-83
2021/06/14 05:13:43;;;;;;;6.47;2.70;;;;;;;18.67;44.67;100501.47;5013195;28;20046;-83
2021/06/14 05:16:09;;;;;;;8.85;3.40;;;;;;;18.73;44.87;100494.81;5013504;28;20053;-83
2021/06/14 05:18:36;;;;;;;9.30;3.05;;;;;;;18.80;44.62;100498.66;5004950;28;20051;-84
2021/06/14 05:21:04;;;;;;;8.43;3.40;;;;;;;18.87;44.51;100505.22;4993843;28;20050;-84
2021/06/14 05:23:31;;;;;;;5.25;2.90;;;;;;;18.94;44.22;100502.03;4993622;28;20046;-84
2021/06/14 05:25:58;;;;;;;7.80;2.63;;;;;;;18.99;44.26;100505.19;4993440;28;20056;-84
2021/06/14 05:28:25;;;;;;;6.50;2.97;;;;;;;19.08;44.13;100514.31;4993695;28;20499;-84
2021/06/14 05:30:52;;;;;;;6.00;3.03;;;;;;;19.12;44.38;100505.94;4993633;28;20054;-84
2021/06/14 05:33:18;;;;;;;9.20;3.30;;;;;;;19.19;44.36;100510.75;5008124;28;20050;-84
2021/06/14 05:35:45;;;;;;;6.28;3.13;;;;;;;19.24;43.89;100511.22;5012989;28;20417;-84
2021/06/14 05:38:12;;;;;;;7.70;3.20;;;;;;;19.28;44.09;100510.00;5013053;28;20050;-84
2021/06/14 05:40:39;;;;;;;5.47;2.58;;;;;;;19.33;44.24;100507.78;5012938;28;20049;-84
2021/06/14 05:43:05;;;;;;;4.97;2.85;;;;;;;19.37;43.91;100501.22;5013167;28;20050;-84
2021/06/14 05:45:32;;;;;;;8.68;3.35;;;;;;;19.42;44.43;100503.53;5010229;28;20049;-84
2021/06/14 05:47:59;;;;;;;8.90;3.58;;;;;;;19.47;44.06;100513.84;4993647;28;20064;-84
2021/06/14 05:50:27;;;;;;;6.03;3.17;;;;;;;19.50;44.27;100505.56;4993441;28;20101;-84
2021/06/14 05:52:54;;;;;;;6.18;2.95;;;;;;;19.55;44.04;100511.34;4993263;28;20047;-84
2021/06/14 05:55:21;;;;;;;6.32;3.22;;;;;;;19.59;44.06;100520.81;4992865;28;20419;-84
2021/06/14 05:57:48;;;;;;;7.05;2.90;;;;;;;19.62;44.27;100520.56;5003143;28;20054;-84
2021/06/14 06:00:15;;;;;;;8.52;3.50;;;;;;;19.67;44.08;100515.69;5012627;28;20089;-84
2021/06/14 06:02:42;;;;;;;6.40;3.28;;;;;;;19.72;44.11;100519.78;5012740;28;20413;-84
2021/06/14 06:05:09;;;;;;;7.53;3.08;;;;;;;19.78;43.65;100524.63;5012552;28;20057;-84
2021/06/14 06:07:36;;;;;;;5.93;3.05;;;;;;;19.83;43.80;100529.56;5012558;28;20534;-84
2021/06/14 06:10:05;;;;;;;10.70;3.35;;;;;;;19.87;43.46;100525.66;5012953;28;20049;-84
2021/06/14 06:12:32;;;;;;;11.93;3.42;;;;;;;19.90;43.82;100536.97;4995799;28;20064;-84
2021/06/14 06:15:01;;;;;;;4.50;2.92;;;;;;;19.93;43.73;100530.50;4992900;28;20443;-84
2021/06/14 06:17:30;;;;;;;6.80;3.15;;;;;;;19.97;43.85;100525.75;4992805;28;20474;-84
2021/06/14 06:19:57;;;;;;;6.57;3.38;;;;;;;19.98;43.70;100522.97;4992904;28;20054;-84
2021/06/14 06:22:24;;;;;;;5.80;3.33;;;;;;;20.01;43.94;100524.53;4992649;28;20050;-84
2021/06/14 06:24:52;;;;;;;7.53;3.42;;;;;;;20.02;43.82;100519.06;4992984;28;20054;-84
2021/06/14 06:27:18;;;;;;;10.35;3.70;;;;;;;20.04;44.00;100509.06;4999580;28;20056;-84
2021/06/14 06:29:45;;;;;;;7.15;3.15;;;;;;;20.09;44.20;100513.19;5012754;28;20091;-84
2021/06/14 06:32:12;;;;;;;8.18;3.05;;;;;;;20.13;44.33;100515.47;5012717;28;20054;-84
2021/06/14 06:34:39;;;;;;;7.97;3.40;;;;;;;20.17;44.05;100513.38;5012461;28;20085;-84
2021/06/14 06:37:06;;;;;;;8.57;3.42;;;;;;;20.21;44.35;100512.13;5012615;28;20050;-84
2021/06/14 06:39:32;;;;;;;8.57;3.70;;;;;;;20.27;44.47;100508.94;5012436;28;20137;-84
2021/06/14 06:42:03;;;;;;;6.03;3.53;;;;;;;20.31;44.63;100504.19;5012458;28;20060;-84
2021/06/14 06:44:30;;;;;;;5.03;2.90;;;;;;;20.38;44.75;100502.69;4997564;28;20053;-84
2021/06/14 06:47:00;;;;;;;7.72;3.28;;;;;;;20.47;44.69;100500.16;4993017;28;20058;-84
2021/06/14 06:49:27;;;;;;;6.57;3.20;;;;;;;20.53;44.37;100497.78;4993039;28;20084;-85
2021/06/14 06:51:54;;;;;;;7.90;3.70;;;;;;;20.59;44.03;100487.56;4992751;28;20059;-84
2021/06/14 06:54:24;;;;;;;5.53;3.05;;;;;;;20.64;44.22;100485.31;4999528;28;20077;-84
2021/06/14 06:56:53;;;;;;;6.35;3.28;;;;;;;20.70;43.86;100496.31;5013744;28;20046;-84
2021/06/14 06:59:23;;;;;;;7.63;3.22;;;;;;;20.75;44.06;100492.38;5012127;28;20064;-85
2021/06/14 07:01:50;;;;;;;6.50;2.72;;;;;;;20.82;43.95;100491.69;5012045;28;20054;-84
2021/06/14 07:04:17;;;;;;;7.03;3.30;;;;;;;20.89;44.04;100494.69;5011892;28;20045;-84
2021/06/14 07:06:44;;;;;;;9.93;3.40;;;;;;;20.96;44.30;100489.66;5011933;28;20060;-84
2021/06/14 07:09:11;;;;;;;6.53;3.42;;;;;;;21.01;44.21;100476.69;5011588;28;20438;-84
2021/06/14 07:11:39;;;;;;;7.95;3.60;;;;;;;21.08;44.03;100479.66;5012005;28;20141;-84
2021/06/14 07:14:06;;;;;;;7.32;3.75;;;;;;;21.15;44.21;100478.13;5011960;28;20060;-84
2021/06/14 07:16:34;;;;;;;6.55;3.35;;;;;;;21.22;44.11;100467.72;5012245;28;20120;-84
2021/06/14 07:19:03;;;;;;;7.07;3.10;;;;;;;21.28;44.22;100463.63;5011776;28;20068;-84
2021/06/14 07:21:30;;;;;;;8.70;3.70;;;;;;;21.34;44.12;100461.25;5011842;28;20060;-84
2021/06/14 07:23:57;;;;;;;5.35;3.00;;;;;;;21.40;44.26;100462.50;5010091;28;20081;-84
2021/06/14 07:26:29;;;;;;;7.55;3.78;;;;;;;21.46;44.11;100450.38;5012238;28;20061;-84
2021/06/14 07:28:56;;;;;;;6.60;3.40;;;;;;;21.54;44.02;100444.31;5012054;28;20676;-84
2021/06/14 07:31:23;;;;;;;7.68;3.17;;;;;;;21.60;43.94;100444.59;5012154;28;20372;-84
2021/06/14 07:33:51;;;;;;;4.85;2.55;;;;;;;21.66;43.73;100437.81;5009962;28;20132;-84
2021/06/14 07:36:18;;;;;;;7.80;3.10;;;;;;;21.74;43.59;100431.75;5013034;28;20058;-84
2021/06/14 07:38:46;;;;;;;6.78;3.25;;;;;;;21.83;43.29;100435.44;5012030;28;20057;-85
2021/06/14 07:41:14;;;;;;;7.07;3.08;;;;;;;21.89;43.46;100448.22;5012062;28;20054;-85
2021/06/14 07:43:41;;;;;;;5.10;2.85;;;;;;;21.97;42.79;100450.19;4995845;28;20062;-85
2021/06/14 07:46:13;;;;;;;5.32;2.70;;;;;;;22.02;42.89;100447.06;4992430;28;20484;-84
2021/06/14 07:48:40;;;;;;;7.68;3.30;;;;;;;22.11;42.80;100448.88;5001392;28;20104;-85
2021/06/14 07:51:09;;;;;;;6.63;3.05;;;;;;;22.18;42.69;100451.81;5011551;28;20056;-84
2021/06/14 07:53:36;;;;;;;7.13;3.38;;;;;;;22.25;42.41;100456.44;5011895;28;20054;-84
2021/06/14 07:56:10;;;;;;;7.03;3.00;;;;;;;22.31;42.14;100446.13;5011475;28;20054;-85
2021/06/14 07:58:37;;;;;;;7.93;3.20;;;;;;;22.39;42.32;100444.38;5011860;28;20136;-84
2021/06/14 08:01:03;;;;;;;4.72;2.80;;;;;;;22.49;42.45;100451.53;5011961;28;20449;-84
2021/06/14 08:03:33;;;;;;;8.15;3.17;;;;;;;22.56;41.53;100438.41;5011482;28;20058;-84
2021/06/14 08:06:04;;;;;;;6.45;2.95;;;;;;;22.65;41.65;100443.72;5009812;28;20406;-84
2021/06/14 08:08:33;;;;;;;6.80;3.63;;;;;;;22.71;41.60;100431.56;5012957;28;20050;-84
2021/06/14 08:11:01;;;;;;;6.15;2.92;;;;;;;22.78;41.53;100437.16;5012222;28;20053;-85
2021/06/14 08:13:28;;;;;;;4.88;2.83;;;;;;;22.84;41.07;100430.34;5015365;28;20160;-84
2021/06/14 08:16:08;;;;;;;5.50;3.35;;;;;;;22.90;41.64;100419.84;5016288;28;20395;-85
2021/06/14 08:18:42;;;;;;;8.25;3.28;;;;;;;22.96;41.52;100423.75;5016256;28;20061;-85
2021/06/14 08:21:25;;;;;;;3.88;2.75;;;;;;;23.03;41.69;100413.25;5012535;28;20413;-85
2021/06/14 08:26:42;;;;;;;7.75;2.75;;;;;;;23.22;41.00;100420.31;5016948;28;20054;-85
2021/06/14 08:29:09;;;;;;;4.47;2.65;;;;;;;23.29;40.68;100410.63;5015904;28;20175;-84
2021/06/14 08:31:36;;;;;;;5.47;2.70;;;;;;;23.39;40.82;100396.28;5000842;28;20426;-85
2021/06/14 08:34:03;;;;;;;6.47;3.13;;;;;;;23.46;39.91;100389.28;4996157;28;20062;-85
2021/06/14 08:36:31;;;;;;;5.25;2.70;;;;;;;23.52;39.07;100391.34;4995761;28;20051;-85
2021/06/14 08:38:59;;;;;;;5.88;2.97;;;;;;;23.59;39.62;100385.34;4996189;28;20509;-85
2021/06/14 08:41:26;;;;;;;8.65;3.38;;;;;;;23.65;39.76;100385.56;4995754;28;20105;-84
2021/06/14 08:43:57;;;;;;;7.50;3.08;;;;;;;23.70;39.23;100382.41;4996440;28;20046;-85
2021/06/14 08:46:25;;;;;;;7.80;2.95;;;;;;;23.79;39.44;100370.69;5015280;28;20054;-85
2021/06/14 08:48:57;;;;;;;8.90;3.45;;;;;;;23.85;39.33;100374.56;5015511;28;20498;-85
2021/06/14 08:51:24;;;;;;;6.82;3.25;;;;;;;23.94;39.47;100372.78;5015239;28;20053;-85
2021/06/14 08:53:52;;;;;;;5.80;2.90;;;;;;;24.01;38.88;100368.47;5015122;28;20434;-84
2021/06/14 08:56:26;;;;;;;5.97;2.78;;;;;;;24.10;39.54;100374.72;5015090;28;20056;-85
2021/06/14 08:58:55;;;;;;;7.18;3.45;;;;;;;24.20;38.93;100369.25;5015228;28;20049;-85
2021/06/14 09:01:23;;;;;;;6.18;3.00;;;;;;;24.28;38.87;100369.28;5013765;28;20058;-85
2021/06/14 09:03:50;;;;;;;7.80;3.45;;;;;;;24.38;39.24;100368.28;5014615;28;20058;-85
2021/06/14 09:06:17;;;;;;;6.00;3.20;;;;;;;24.46;38.50;100360.25;5014923;28;20138;-85
2021/06/14 09:08:55;;;;;;;6.00;3.25;;;;;;;24.52;38.72;100348.81;5015874;28;20065;-85
2021/06/14 09:11:22;;;;;;;5.60;3.25;;;;;;;24.63;38.98;100331.50;5014479;28;20053;-84
2021/06/14 09:13:50;;;;;;;10.35;3.15;;;;;;;24.70;38.99;100334.38;5014517;28;20081;-85
2021/06/14 09:16:16;;;;;;;7.88;3.58;;;;;;;24.80;38.43;100335.06;5012512;28;20057;-84
2021/06/14 09:18:44;;;;;;;8.20;3.83;;;;;;;24.89;38.32;100348.56;4995382;28;20061;-85
2021/06/14 09:21:29;;;;;;;7.13;3.25;;;;;;;24.98;38.46;100347.56;4917640;29;20052;-85
2021/06/14 09:24:02;;;;;;;6.57;3.15;;;;;;;25.05;37.78;100359.34;4900930;29;20052;-85
2021/06/14 09:26:33;;;;;;;4.13;3.00;;;;;;;25.15;38.67;100355.66;4901584;29;20079;-84
2021/06/14 09:29:25;;;;;;;8.40;3.25;;;;;;;25.23;38.96;100351.06;4917074;29;20052;-85
2021/06/14 09:31:58;;;;;;;5.47;3.20;;;;;;;25.34;37.83;100357.97;4917216;29;20167;-85
2021/06/14 09:34:39;;;;;;;7.07;3.20;;;;;;;25.44;37.76;100354.25;4911310;29;20294;-85
2021/06/14 09:37:09;;;;;;;7.05;3.45;;;;;;;25.53;37.09;100341.63;4936210;29;20091;-85
2021/06/14 09:39:44;;;;;;;6.18;3.20;;;;;;;25.58;37.84;100337.44;4919946;29;20146;-85
2021/06/14 09:42:17;;;;;;;7.15;3.08;;;;;;;25.67;36.65;100340.09;4919487;29;20615;-85
2021/06/14 09:44:45;;;;;;;5.93;2.60;;;;;;;25.76;36.98;100339.06;4919284;29;20051;-86
2021/06/14 09:47:16;;;;;;;9.15;2.83;;;;;;;25.81;36.77;100338.53;5011896;28;20060;-85
2021/06/14 09:50:07;;;;;;;4.80;2.60;;;;;;;25.85;36.92;100348.81;5011862;28;20096;-85
2021/06/14 09:52:35;;;;;;;5.70;2.90;;;;;;;25.97;36.70;100348.41;5013746;28;20061;-85
2021/06/14 09:55:11;;;;;;;9.32;3.30;;;;;;;26.00;35.94;100343.53;5005025;28;20126;-85
2021/06/14 09:57:44;;;;;;;4.97;2.47;;;;;;;26.07;37.26;100340.09;4993790;28;20462;-85
2021/06/14 10:00:13;;;;;;;6.93;3.10;;;;;;;26.14;36.66;100339.25;4998051;28;20081;-85
2021/06/14 10:02:45;;;;;;;6.68;2.72;;;;;;;26.21;36.72;100335.84;5013172;28;20111;-85
2021/06/14 10:05:21;;;;;;;6.72;2.90;;;;;;;26.26;36.03;100337.03;5013003;28;20045;-85
2021/06/14 10:08:04;;;;;;;4.85;2.45;;;;;;;26.34;37.17;100332.56;5013365;28;20487;-85
2021/06/14 10:10:31;;;;;;;8.40;2.78;;;;;;;26.45;36.30;100324.09;5013447;28;20054;-85
2021/06/14 10:12:59;;;;;;;6.00;2.45;;;;;;;26.51;35.98;100325.25;5012968;28;20058;-85
2021/06/14 10:15:29;;;;;;;8.05;2.75;;;;;;;26.57;35.46;100323.69;5013944;28;20058;-85
2021/06/14 10:17:57;;;;;;;5.38;2.60;;;;;;;26.64;35.31;100325.47;5013010;28;20065;-85
2021/06/14 10:20:27;;;;;;;5.60;2.75;;;;;;;26.72;34.75;100323.75;5012853;28;20124;-85
2021/06/14 10:22:57;;;;;;;6.97;2.95;;;;;;;26.79;35.01;100339.03;5012633;28;20097;-84
2021/06/14 10:25:36;;;;;;;9.48;2.70;;;;;;;26.89;35.42;100336.09;5012683;28;20054;-85
2021/06/14 10:28:06;;;;;;;6.25;2.33;;;;;;;26.99;35.44;100326.94;5012877;28;20046;-85
2021/06/14 10:30:36;;;;;;;6.40;2.58;;;;;;;27.06;34.45;100336.81;5012793;28;20060;-86
2021/06/14 10:33:05;;;;;;;5.30;2.63;;;;;;;27.18;34.58;100337.22;5010491;28;20138;-86
2021/06/14 10:35:34;;;;;;;4.75;2.47;;;;;;;27.29;33.79;100329.72;4992093;28;20054;-86
2021/06/14 10:38:03;;;;;;;8.35;2.92;;;;;;;27.37;33.51;100324.22;4993334;28;20089;-86
2021/06/14 10:40:34;;;;;;;4.57;2.40;;;;;;;27.50;34.34;100325.44;5009943;28;20057;-86
2021/06/14 10:43:01;;;;;;;4.63;2.58;;;;;;;27.67;34.96;100332.38;5012901;28;20107;-86
2021/06/14 10:45:30;;;;;;;4.13;2.45;;;;;;;27.92;35.28;100317.72;5012462;28;20069;-87
2021/06/14 10:48:02;;;;;;;5.82;3.00;;;;;;;28.22;33.92;100321.19;5012812;28;20069;-86
2021/06/14 10:50:34;;;;;;;3.38;2.20;;;;;;;28.66;33.22;100323.16;5012460;28;20145;-86
2021/06/14 10:53:02;;;;;;;;;;;;;;;29.07;34.94;100324.34;4994456;28;20104;-87
2021/06/14 10:55:32;;;;;;;4.63;2.33;;;;;;;29.70;32.55;100334.41;4992657;28;19921;-86
2021/06/14 10:58:03;;;;;;;5.72;2.55;;;;;;;30.23;32.05;100326.72;4992716;28;20056;-86
2021/06/14 11:00:34;;;;;;;3.45;2.22;;;;;;;30.74;31.40;100324.53;4992569;28;20046;-86
2021/06/14 11:03:05;;;;;;;2.95;2.30;;;;;;;31.23;30.73;100317.00;4992827;28;20085;-86
2021/06/14 11:05:46;;;;;;;6.60;2.47;;;;;;;31.64;28.36;100323.22;4995466;28;20426;-85
2021/06/14 11:08:23;;;;;;;4.47;2.45;;;;;;;32.01;29.34;100310.97;5012197;28;20064;-87
2021/06/14 11:11:00;;;;;;;3.70;2.30;;;;;;;32.31;28.89;100321.28;5012047;28;20136;-87
2021/06/14 11:13:27;;;;;;;7.10;2.85;;;;;;;32.64;29.02;100314.81;5012412;28;20054;-87
2021/06/14 11:15:58;;;;;;;2.75;1.88;;;;;;;32.97;27.98;100315.63;5011853;28;20054;-86
2021/06/14 11:18:30;;;;;;;6.43;3.03;;;;;;;33.28;26.51;100298.34;5012312;28;20117;-87
2021/06/14 11:21:09;;;;;;;4.97;2.53;;;;;;;33.56;27.54;100295.38;4996247;28;20455;-86
2021/06/14 11:23:40;;;;;;;4.60;2.60;;;;;;;33.82;26.31;100280.53;5004620;28;20061;-86
2021/06/14 11:26:11;;;;;;;2.90;1.98;;;;;;;34.01;28.20;100277.78;5009840;28;20356;-86
2021/06/14 11:28:41;;;;;;;4.15;2.58;;;;;;;34.20;27.58;100280.50;5011858;28;20050;-86
2021/06/14 11:31:29;;;;;;;8.18;2.30;;;;;;;34.38;27.86;100274.94;5012164;28;20064;-86
2021/06/14 11:34:02;;;;;;;5.00;2.20;;;;;;;34.67;27.12;100266.97;5004022;28;20052;-86
2021/06/14 11:36:34;;;;;;;5.35;2.30;;;;;;;34.91;25.49;100263.41;4992255;28;20056;-86
2021/06/14 11:39:15;;;;;;;3.65;2.30;;;;;;;35.10;26.41;100269.59;4992132;28;20057;-86
2021/06/14 11:41:42;;;;;;;4.13;2.70;;;;;;;35.31;26.05;100256.34;4993768;28;20137;-84